sensor_id;sensor_type;location;lat;lon;timestamp;temperature;humidity
18131;DHT22;9191;54.324;10.126;2023-03-01T00:02:14;3.10;99.90
18131;DHT22;9191;54.324;10.126;2023-03-01T00:04:40;3.10;99.90
18131;DHT22;9191;54.324;10.126;2023-03-01T00:07:07;3.10;99.90
18131;DHT22;9191;54.324;10.126;2023-03-01T00:09:36;3.10;99.90
18131;DHT22;9191;54.324;10.126;2023-03-01T00:12:05;3.10;99.90
18131;DHT22;9191;54.324;10.126;2023-03-01T00:14:32;3.10;99.90
18131;DHT22;9191;54.324;10.126;2023-03-01T00:16:58;3.10;99.90
18131;DHT22;9191;54.324;10.126;2023-03-01T00:19:25;3.10;99.90
18131;DHT22;9191;54.324;10.126;2023-03-01T00:21:52;3.10;99.90
18131;DHT22;9191;54.324;10.126;2023-03-01T00:24:18;3.10;99.90
18131;DHT22;9191;54.324;10.126;2023-03-01T00:26:46;3.10;99.90
18131;DHT22;9191;54.324;10.126;2023-03-01T00:29:13;3.10;99.90
18131;DHT22;9191;54.324;10.126;2023-03-01T00:31:40;3.10;99.90
18131;DHT22;9191;54.324;10.126;2023-03-01T00:34:07;3.10;99.90
18131;DHT22;9191;54.324;10.126;2023-03-01T00:36:34;3.10;99.90
18131;DHT22;9191;54.324;10.126;2023-03-01T00:39:01;3.10;99.90
18131;DHT22;9191;54.324;10.126;2023-03-01T00:41:29;3.10;99.90
18131;DHT22;9191;54.324;10.126;2023-03-01T00:43:57;3.00;99.90
18131;DHT22;9191;54.324;10.126;2023-03-01T00:46:25;2.90;99.90
18131;DHT22;9191;54.324;10.126;2023-03-01T00:48:52;2.80;99.90
18131;DHT22;9191;54.324;10.126;2023-03-01T00:51:19;2.80;99.90
18131;DHT22;9191;54.324;10.126;2023-03-01T00:53:47;2.70;99.90
18131;DHT22;9191;54.324;10.126;2023-03-01T00:56:16;2.60;99.90
18131;DHT22;9191;54.324;10.126;2023-03-01T00:58:42;2.60;99.90
18131;DHT22;9191;54.324;10.126;2023-03-01T01:01:11;2.60;99.90
18131;DHT22;9191;54.324;10.126;2023-03-01T01:03:42;2.60;99.90
18131;DHT22;9191;54.324;10.126;2023-03-01T01:06:12;2.60;99.90
18131;DHT22;9191;54.324;10.126;2023-03-01T01:08:39;2.50;99.90
18131;DHT22;9191;54.324;10.126;2023-03-01T01:11:06;2.50;99.90
18131;DHT22;9191;54.324;10.126;2023-03-01T01:13:34;2.50;99.90
18131;DHT22;9191;54.324;10.126;2023-03-01T01:16:01;2.40;99.90
18131;DHT22;9191;54.324;10.126;2023-03-01T01:18:29;2.40;99.90
18131;DHT22;9191;54.324;10.126;2023-03-01T01:20:56;2.30;99.90
18131;DHT22;9191;54.324;10.126;2023-03-01T01:23:23;2.20;99.90
18131;DHT22;9191;54.324;10.126;2023-03-01T01:25:49;2.20;99.90
18131;DHT22;9191;54.324;10.126;2023-03-01T01:28:16;2.20;99.90
18131;DHT22;9191;54.324;10.126;2023-03-01T01:30:43;2.20;99.90
18131;DHT22;9191;54.324;10.126;2023-03-01T01:33:09;2.10;99.90
18131;DHT22;9191;54.324;10.126;2023-03-01T01:35:37;2.00;99.90
18131;DHT22;9191;54.324;10.126;2023-03-01T01:38:04;1.90;99.90
18131;DHT22;9191;54.324;10.126;2023-03-01T01:40:31;1.90;99.90
18131;DHT22;9191;54.324;10.126;2023-03-01T01:42:57;1.80;99.90
18131;DHT22;9191;54.324;10.126;2023-03-01T01:45:26;1.90;99.90
18131;DHT22;9191;54.324;10.126;2023-03-01T01:47:53;1.80;99.90
18131;DHT22;9191;54.324;10.126;2023-03-01T01:50:21;1.90;99.90
18131;DHT22;9191;54.324;10.126;2023-03-01T01:52:50;1.80;99.90
18131;DHT22;9191;54.324;10.126;2023-03-01T01:55:17;1.90;99.90
18131;DHT22;9191;54.324;10.126;2023-03-01T01:57:47;1.90;99.90
18131;DHT22;9191;54.324;10.126;2023-03-01T02:00:18;2.00;99.90
18131;DHT22;9191;54.324;10.126;2023-03-01T02:02:46;1.90;99.90
18131;DHT22;9191;54.324;10.126;2023-03-01T02:05:15;1.90;99.90
18131;DHT22;9191;54.324;10.126;2023-03-01T02:07:46;1.90;99.90
18131;DHT22;9191;54.324;10.126;2023-03-01T02:10:15;1.80;99.90
18131;DHT22;9191;54.324;10.126;2023-03-01T02:12:42;1.80;99.90
18131;DHT22;9191;54.324;10.126;2023-03-01T02:15:09;1.80;99.90
18131;DHT22;9191;54.324;10.126;2023-03-01T02:17:36;1.70;99.90
18131;DHT22;9191;54.324;10.126;2023-03-01T02:20:07;1.90;99.90
18131;DHT22;9191;54.324;10.126;2023-03-01T02:22:39;1.70;99.90
18131;DHT22;9191;54.324;10.126;2023-03-01T02:25:09;1.80;99.90
18131;DHT22;9191;54.324;10.126;2023-03-01T02:27:40;1.80;99.90
18131;DHT22;9191;54.324;10.126;2023-03-01T02:30:10;1.80;99.90
18131;DHT22;9191;54.324;10.126;2023-03-01T02:32:39;1.90;99.90
18131;DHT22;9191;54.324;10.126;2023-03-01T02:35:07;1.80;99.90
18131;DHT22;9191;54.324;10.126;2023-03-01T02:37:34;1.80;99.90
18131;DHT22;9191;54.324;10.126;2023-03-01T02:40:02;1.80;99.90
18131;DHT22;9191;54.324;10.126;2023-03-01T02:42:30;1.80;99.90
18131;DHT22;9191;54.324;10.126;2023-03-01T02:44:58;1.80;99.90
18131;DHT22;9191;54.324;10.126;2023-03-01T02:47:26;1.80;99.90
18131;DHT22;9191;54.324;10.126;2023-03-01T02:49:52;1.80;99.90
18131;DHT22;9191;54.324;10.126;2023-03-01T02:52:30;1.70;99.90
18131;DHT22;9191;54.324;10.126;2023-03-01T02:55:01;1.70;99.90
18131;DHT22;9191;54.324;10.126;2023-03-01T02:57:30;1.70;99.90
18131;DHT22;9191;54.324;10.126;2023-03-01T02:59:58;1.80;99.90
18131;DHT22;9191;54.324;10.126;2023-03-01T03:02:28;1.80;99.90
18131;DHT22;9191;54.324;10.126;2023-03-01T03:05:03;1.70;99.90
18131;DHT22;9191;54.324;10.126;2023-03-01T03:07:31;1.70;99.90
18131;DHT22;9191;54.324;10.126;2023-03-01T03:09:58;1.70;99.90
18131;DHT22;9191;54.324;10.126;2023-03-01T03:12:25;1.60;99.90
18131;DHT22;9191;54.324;10.126;2023-03-01T03:14:51;1.70;99.90
18131;DHT22;9191;54.324;10.126;2023-03-01T03:17:18;1.60;99.90
18131;DHT22;9191;54.324;10.126;2023-03-01T03:19:46;1.60;99.90
18131;DHT22;9191;54.324;10.126;2023-03-01T03:22:13;1.60;99.90
18131;DHT22;9191;54.324;10.126;2023-03-01T03:24:39;1.60;99.90
18131;DHT22;9191;54.324;10.126;2023-03-01T03:27:06;1.60;99.90
18131;DHT22;9191;54.324;10.126;2023-03-01T03:29:33;1.40;99.90
18131;DHT22;9191;54.324;10.126;2023-03-01T03:32:00;1.40;99.90
18131;DHT22;9191;54.324;10.126;2023-03-01T03:34:26;1.40;99.90
18131;DHT22;9191;54.324;10.126;2023-03-01T03:36:55;1.40;99.90
18131;DHT22;9191;54.324;10.126;2023-03-01T03:39:24;1.30;99.90
18131;DHT22;9191;54.324;10.126;2023-03-01T03:41:51;1.40;99.90
18131;DHT22;9191;54.324;10.126;2023-03-01T03:44:18;1.40;99.90
18131;DHT22;9191;54.324;10.126;2023-03-01T03:46:44;1.40;99.90
18131;DHT22;9191;54.324;10.126;2023-03-01T03:49:11;1.40;99.90
18131;DHT22;9191;54.324;10.126;2023-03-01T03:51:38;1.40;99.90
18131;DHT22;9191;54.324;10.126;2023-03-01T03:54:06;1.50;99.90
18131;DHT22;9191;54.324;10.126;2023-03-01T03:56:32;1.40;99.90
18131;DHT22;9191;54.324;10.126;2023-03-01T03:59:00;1.50;99.90
18131;DHT22;9191;54.324;10.126;2023-03-01T04:01:26;1.40;99.90
18131;DHT22;9191;54.324;10.126;2023-03-01T04:03:53;1.60;99.90
18131;DHT22;9191;54.324;10.126;2023-03-01T04:06:21;1.40;99.90
18131;DHT22;9191;54.324;10.126;2023-03-01T04:08:48;1.30;99.90
18131;DHT22;9191;54.324;10.126;2023-03-01T04:11:17;1.40;99.90
18131;DHT22;9191;54.324;10.126;2023-03-01T04:13:54;1.50;99.90
18131;DHT22;9191;54.324;10.126;2023-03-01T04:16:22;1.50;99.90
18131;DHT22;9191;54.324;10.126;2023-03-01T04:18:48;1.50;99.90
18131;DHT22;9191;54.324;10.126;2023-03-01T04:21:15;1.40;99.90
18131;DHT22;9191;54.324;10.126;2023-03-01T04:23:42;1.50;99.90
18131;DHT22;9191;54.324;10.126;2023-03-01T04:26:09;1.40;99.90
18131;DHT22;9191;54.324;10.126;2023-03-01T04:28:37;1.40;99.90
18131;DHT22;9191;54.324;10.126;2023-03-01T04:31:05;1.30;99.90
18131;DHT22;9191;54.324;10.126;2023-03-01T04:33:38;1.30;99.90
18131;DHT22;9191;54.324;10.126;2023-03-01T04:36:05;1.30;99.90
18131;DHT22;9191;54.324;10.126;2023-03-01T04:38:34;1.30;99.90
18131;DHT22;9191;54.324;10.126;2023-03-01T04:41:02;1.40;99.90
18131;DHT22;9191;54.324;10.126;2023-03-01T04:43:29;1.40;99.90
18131;DHT22;9191;54.324;10.126;2023-03-01T04:46:01;1.30;99.90
18131;DHT22;9191;54.324;10.126;2023-03-01T04:48:29;1.40;99.90
18131;DHT22;9191;54.324;10.126;2023-03-01T04:50:59;1.40;99.90
18131;DHT22;9191;54.324;10.126;2023-03-01T04:53:25;1.30;99.90
18131;DHT22;9191;54.324;10.126;2023-03-01T04:55:53;1.30;99.90
18131;DHT22;9191;54.324;10.126;2023-03-01T04:58:20;1.20;99.90
18131;DHT22;9191;54.324;10.126;2023-03-01T05:00:49;1.00;99.90
18131;DHT22;9191;54.324;10.126;2023-03-01T05:03:17;1.00;99.90
18131;DHT22;9191;54.324;10.126;2023-03-01T05:05:44;0.90;99.90
18131;DHT22;9191;54.324;10.126;2023-03-01T05:08:12;0.90;99.90
18131;DHT22;9191;54.324;10.126;2023-03-01T05:10:43;1.00;99.90
18131;DHT22;9191;54.324;10.126;2023-03-01T05:13:11;1.00;99.90
18131;DHT22;9191;54.324;10.126;2023-03-01T05:15:40;1.20;99.90
18131;DHT22;9191;54.324;10.126;2023-03-01T05:18:07;1.20;99.90
18131;DHT22;9191;54.324;10.126;2023-03-01T05:20:38;1.20;99.90
18131;DHT22;9191;54.324;10.126;2023-03-01T05:23:04;1.20;99.90
18131;DHT22;9191;54.324;10.126;2023-03-01T05:25:31;1.30;99.90
18131;DHT22;9191;54.324;10.126;2023-03-01T05:27:58;1.30;99.90
18131;DHT22;9191;54.324;10.126;2023-03-01T05:30:29;1.30;99.90
18131;DHT22;9191;54.324;10.126;2023-03-01T05:32:56;1.20;99.90
18131;DHT22;9191;54.324;10.126;2023-03-01T05:35:23;1.10;99.90
18131;DHT22;9191;54.324;10.126;2023-03-01T05:37:51;1.10;99.90
18131;DHT22;9191;54.324;10.126;2023-03-01T05:40:19;1.00;99.90
18131;DHT22;9191;54.324;10.126;2023-03-01T05:42:46;1.00;99.90
18131;DHT22;9191;54.324;10.126;2023-03-01T05:45:14;0.90;99.90
18131;DHT22;9191;54.324;10.126;2023-03-01T05:47:41;0.90;99.90
18131;DHT22;9191;54.324;10.126;2023-03-01T05:50:10;0.90;99.90
18131;DHT22;9191;54.324;10.126;2023-03-01T05:52:37;0.90;99.90
18131;DHT22;9191;54.324;10.126;2023-03-01T05:55:05;1.00;99.90
18131;DHT22;9191;54.324;10.126;2023-03-01T05:57:32;1.00;99.90
18131;DHT22;9191;54.324;10.126;2023-03-01T05:59:59;1.00;99.90
18131;DHT22;9191;54.324;10.126;2023-03-01T06:02:25;1.10;99.90
18131;DHT22;9191;54.324;10.126;2023-03-01T06:04:52;1.20;99.90
18131;DHT22;9191;54.324;10.126;2023-03-01T06:07:23;1.30;99.90
18131;DHT22;9191;54.324;10.126;2023-03-01T06:09:50;1.20;99.90
18131;DHT22;9191;54.324;10.126;2023-03-01T06:12:18;1.10;99.90
18131;DHT22;9191;54.324;10.126;2023-03-01T06:14:45;1.10;99.90
18131;DHT22;9191;54.324;10.126;2023-03-01T06:17:12;1.10;99.90
18131;DHT22;9191;54.324;10.126;2023-03-01T06:19:39;1.10;99.90
18131;DHT22;9191;54.324;10.126;2023-03-01T06:22:05;1.00;99.90
18131;DHT22;9191;54.324;10.126;2023-03-01T06:24:35;1.00;99.90
18131;DHT22;9191;54.324;10.126;2023-03-01T06:27:01;1.00;99.90
18131;DHT22;9191;54.324;10.126;2023-03-01T06:29:35;1.00;99.90
18131;DHT22;9191;54.324;10.126;2023-03-01T06:32:02;1.00;99.90
18131;DHT22;9191;54.324;10.126;2023-03-01T06:34:28;1.00;99.90
18131;DHT22;9191;54.324;10.126;2023-03-01T06:36:55;1.00;99.90
18131;DHT22;9191;54.324;10.126;2023-03-01T06:39:22;1.00;99.90
18131;DHT22;9191;54.324;10.126;2023-03-01T06:41:48;1.10;99.90
18131;DHT22;9191;54.324;10.126;2023-03-01T06:44:15;1.20;99.90
18131;DHT22;9191;54.324;10.126;2023-03-01T06:46:43;1.20;99.90
18131;DHT22;9191;54.324;10.126;2023-03-01T06:49:10;1.30;99.90
18131;DHT22;9191;54.324;10.126;2023-03-01T06:51:37;1.30;99.90
18131;DHT22;9191;54.324;10.126;2023-03-01T06:54:03;1.20;99.90
18131;DHT22;9191;54.324;10.126;2023-03-01T06:56:30;1.10;99.90
18131;DHT22;9191;54.324;10.126;2023-03-01T06:58:57;1.20;99.90
18131;DHT22;9191;54.324;10.126;2023-03-01T07:01:23;1.20;99.90
18131;DHT22;9191;54.324;10.126;2023-03-01T07:03:51;1.30;99.90
18131;DHT22;9191;54.324;10.126;2023-03-01T07:06:18;1.40;99.90
18131;DHT22;9191;54.324;10.126;2023-03-01T07:08:45;1.40;99.90
18131;DHT22;9191;54.324;10.126;2023-03-01T07:11:12;1.20;99.90
18131;DHT22;9191;54.324;10.126;2023-03-01T07:13:39;1.20;99.90
18131;DHT22;9191;54.324;10.126;2023-03-01T07:16:06;1.30;99.90
18131;DHT22;9191;54.324;10.126;2023-03-01T07:18:33;1.30;99.90
18131;DHT22;9191;54.324;10.126;2023-03-01T07:21:04;1.30;99.90
18131;DHT22;9191;54.324;10.126;2023-03-01T07:23:34;1.40;99.90
18131;DHT22;9191;54.324;10.126;2023-03-01T07:26:01;1.50;99.90
18131;DHT22;9191;54.324;10.126;2023-03-01T07:28:27;1.40;99.90
18131;DHT22;9191;54.324;10.126;2023-03-01T07:30:54;1.40;99.90
18131;DHT22;9191;54.324;10.126;2023-03-01T07:33:21;1.50;99.90
18131;DHT22;9191;54.324;10.126;2023-03-01T07:35:55;1.50;99.90
18131;DHT22;9191;54.324;10.126;2023-03-01T07:38:23;1.50;99.90
18131;DHT22;9191;54.324;10.126;2023-03-01T07:40:50;1.50;99.90
18131;DHT22;9191;54.324;10.126;2023-03-01T07:43:16;1.40;99.90
18131;DHT22;9191;54.324;10.126;2023-03-01T07:45:43;1.40;99.90
18131;DHT22;9191;54.324;10.126;2023-03-01T07:48:10;1.40;99.90
18131;DHT22;9191;54.324;10.126;2023-03-01T07:50:37;1.30;99.90
18131;DHT22;9191;54.324;10.126;2023-03-01T07:53:03;1.40;99.90
18131;DHT22;9191;54.324;10.126;2023-03-01T07:55:34;1.50;99.90
18131;DHT22;9191;54.324;10.126;2023-03-01T07:58:01;1.60;99.90
18131;DHT22;9191;54.324;10.126;2023-03-01T08:00:28;1.60;99.90
18131;DHT22;9191;54.324;10.126;2023-03-01T08:02:54;1.80;99.90
18131;DHT22;9191;54.324;10.126;2023-03-01T08:05:24;2.00;99.90
18131;DHT22;9191;54.324;10.126;2023-03-01T08:07:51;2.00;99.90
18131;DHT22;9191;54.324;10.126;2023-03-01T08:10:18;2.30;99.90
18131;DHT22;9191;54.324;10.126;2023-03-01T08:12:47;2.60;99.90
18131;DHT22;9191;54.324;10.126;2023-03-01T08:15:16;2.80;99.90
18131;DHT22;9191;54.324;10.126;2023-03-01T08:17:44;2.70;99.90
18131;DHT22;9191;54.324;10.126;2023-03-01T08:20:10;2.60;99.90
18131;DHT22;9191;54.324;10.126;2023-03-01T08:22:37;2.70;99.90
18131;DHT22;9191;54.324;10.126;2023-03-01T08:25:04;2.90;99.90
18131;DHT22;9191;54.324;10.126;2023-03-01T08:27:31;3.20;99.90
18131;DHT22;9191;54.324;10.126;2023-03-01T08:29:59;3.30;99.90
18131;DHT22;9191;54.324;10.126;2023-03-01T08:32:26;3.30;99.90
18131;DHT22;9191;54.324;10.126;2023-03-01T08:34:53;3.20;99.90
18131;DHT22;9191;54.324;10.126;2023-03-01T08:37:19;3.20;99.90
18131;DHT22;9191;54.324;10.126;2023-03-01T08:39:46;2.90;99.90
18131;DHT22;9191;54.324;10.126;2023-03-01T08:42:13;3.10;99.90
18131;DHT22;9191;54.324;10.126;2023-03-01T08:44:40;2.90;99.90
18131;DHT22;9191;54.324;10.126;2023-03-01T08:47:08;2.60;99.90
18131;DHT22;9191;54.324;10.126;2023-03-01T08:49:35;2.40;99.90
18131;DHT22;9191;54.324;10.126;2023-03-01T08:52:01;2.40;99.90
18131;DHT22;9191;54.324;10.126;2023-03-01T08:54:28;2.60;99.90
18131;DHT22;9191;54.324;10.126;2023-03-01T08:56:55;2.60;99.90
18131;DHT22;9191;54.324;10.126;2023-03-01T08:59:24;2.50;99.90
18131;DHT22;9191;54.324;10.126;2023-03-01T09:01:51;2.30;99.90
18131;DHT22;9191;54.324;10.126;2023-03-01T09:04:19;2.40;99.90
18131;DHT22;9191;54.324;10.126;2023-03-01T09:06:46;2.40;99.90
18131;DHT22;9191;54.324;10.126;2023-03-01T09:09:14;2.30;99.90
18131;DHT22;9191;54.324;10.126;2023-03-01T09:11:41;2.50;99.90
18131;DHT22;9191;54.324;10.126;2023-03-01T09:14:08;2.60;99.90
18131;DHT22;9191;54.324;10.126;2023-03-01T09:16:34;2.50;99.90
18131;DHT22;9191;54.324;10.126;2023-03-01T09:19:02;2.60;99.90
18131;DHT22;9191;54.324;10.126;2023-03-01T09:21:30;2.70;99.90
18131;DHT22;9191;54.324;10.126;2023-03-01T09:23:57;2.80;99.90
18131;DHT22;9191;54.324;10.126;2023-03-01T09:26:24;2.90;99.90
18131;DHT22;9191;54.324;10.126;2023-03-01T09:28:52;2.90;99.90
18131;DHT22;9191;54.324;10.126;2023-03-01T09:31:20;2.80;99.90
18131;DHT22;9191;54.324;10.126;2023-03-01T09:33:47;2.90;99.90
18131;DHT22;9191;54.324;10.126;2023-03-01T09:36:15;3.00;99.90
18131;DHT22;9191;54.324;10.126;2023-03-01T09:38:44;2.80;99.90
18131;DHT22;9191;54.324;10.126;2023-03-01T09:41:11;2.80;99.90
18131;DHT22;9191;54.324;10.126;2023-03-01T09:43:46;2.70;99.90
18131;DHT22;9191;54.324;10.126;2023-03-01T09:46:19;3.00;99.90
18131;DHT22;9191;54.324;10.126;2023-03-01T09:48:48;3.10;99.90
18131;DHT22;9191;54.324;10.126;2023-03-01T09:51:17;3.20;99.90
18131;DHT22;9191;54.324;10.126;2023-03-01T09:53:46;3.00;99.90
18131;DHT22;9191;54.324;10.126;2023-03-01T09:56:14;3.10;99.90
18131;DHT22;9191;54.324;10.126;2023-03-01T09:58:51;3.50;99.90
18131;DHT22;9191;54.324;10.126;2023-03-01T10:01:29;3.70;99.90
18131;DHT22;9191;54.324;10.126;2023-03-01T10:04:21;3.90;99.90
18131;DHT22;9191;54.324;10.126;2023-03-01T10:06:56;4.10;99.90
18131;DHT22;9191;54.324;10.126;2023-03-01T10:09:27;3.90;99.90
18131;DHT22;9191;54.324;10.126;2023-03-01T10:11:56;4.10;99.90
18131;DHT22;9191;54.324;10.126;2023-03-01T10:14:28;4.00;99.90
18131;DHT22;9191;54.324;10.126;2023-03-01T10:16:59;4.00;99.90
18131;DHT22;9191;54.324;10.126;2023-03-01T10:19:30;3.80;99.90
18131;DHT22;9191;54.324;10.126;2023-03-01T10:21:58;3.60;99.90
18131;DHT22;9191;54.324;10.126;2023-03-01T10:24:35;3.80;99.90
18131;DHT22;9191;54.324;10.126;2023-03-01T10:27:05;4.00;99.90
18131;DHT22;9191;54.324;10.126;2023-03-01T10:29:34;3.90;99.90
18131;DHT22;9191;54.324;10.126;2023-03-01T10:32:04;3.90;99.90
18131;DHT22;9191;54.324;10.126;2023-03-01T10:34:34;4.00;99.90
18131;DHT22;9191;54.324;10.126;2023-03-01T10:37:04;4.10;99.90
18131;DHT22;9191;54.324;10.126;2023-03-01T10:39:36;4.00;99.90
18131;DHT22;9191;54.324;10.126;2023-03-01T10:42:03;4.20;99.90
18131;DHT22;9191;54.324;10.126;2023-03-01T10:44:41;4.30;99.90
18131;DHT22;9191;54.324;10.126;2023-03-01T10:47:13;4.20;99.90
18131;DHT22;9191;54.324;10.126;2023-03-01T10:49:52;4.10;99.90
18131;DHT22;9191;54.324;10.126;2023-03-01T10:52:19;4.10;99.90
18131;DHT22;9191;54.324;10.126;2023-03-01T10:54:54;4.00;99.90
18131;DHT22;9191;54.324;10.126;2023-03-01T10:57:34;3.90;99.90
18131;DHT22;9191;54.324;10.126;2023-03-01T11:00:16;4.10;99.90
18131;DHT22;9191;54.324;10.126;2023-03-01T11:02:46;4.40;99.90
18131;DHT22;9191;54.324;10.126;2023-03-01T11:05:17;4.30;99.90
18131;DHT22;9191;54.324;10.126;2023-03-01T11:07:48;4.00;99.90
18131;DHT22;9191;54.324;10.126;2023-03-01T11:10:18;4.00;99.90
18131;DHT22;9191;54.324;10.126;2023-03-01T11:12:45;3.90;99.90
18131;DHT22;9191;54.324;10.126;2023-03-01T11:15:20;4.10;99.90
18131;DHT22;9191;54.324;10.126;2023-03-01T11:17:47;3.90;99.90
18131;DHT22;9191;54.324;10.126;2023-03-01T11:20:27;4.10;99.90
18131;DHT22;9191;54.324;10.126;2023-03-01T11:22:56;4.20;99.90
18131;DHT22;9191;54.324;10.126;2023-03-01T11:25:26;4.50;99.90
18131;DHT22;9191;54.324;10.126;2023-03-01T11:27:55;4.80;99.90
18131;DHT22;9191;54.324;10.126;2023-03-01T11:30:24;4.80;99.90
18131;DHT22;9191;54.324;10.126;2023-03-01T11:32:54;4.60;99.90
18131;DHT22;9191;54.324;10.126;2023-03-01T11:35:24;4.50;99.90
18131;DHT22;9191;54.324;10.126;2023-03-01T11:38:02;4.30;99.90
18131;DHT22;9191;54.324;10.126;2023-03-01T11:40:32;4.30;99.90
18131;DHT22;9191;54.324;10.126;2023-03-01T11:43:02;4.30;99.90
18131;DHT22;9191;54.324;10.126;2023-03-01T11:45:38;4.20;99.90
18131;DHT22;9191;54.324;10.126;2023-03-01T11:48:07;4.30;99.90
18131;DHT22;9191;54.324;10.126;2023-03-01T11:50:44;4.10;99.90
18131;DHT22;9191;54.324;10.126;2023-03-01T11:53:17;4.10;99.90
18131;DHT22;9191;54.324;10.126;2023-03-01T11:55:58;4.20;99.90
18131;DHT22;9191;54.324;10.126;2023-03-01T11:58:27;4.20;99.90
18131;DHT22;9191;54.324;10.126;2023-03-01T12:01:07;4.40;99.90
18131;DHT22;9191;54.324;10.126;2023-03-01T12:03:42;4.80;99.90
18131;DHT22;9191;54.324;10.126;2023-03-01T12:09:02;4.80;99.90
18131;DHT22;9191;54.324;10.126;2023-03-01T12:11:35;4.90;99.90
18131;DHT22;9191;54.324;10.126;2023-03-01T12:14:11;4.90;99.90
18131;DHT22;9191;54.324;10.126;2023-03-01T12:19:25;5.00;99.90
18131;DHT22;9191;54.324;10.126;2023-03-01T12:25:04;5.00;99.90
18131;DHT22;9191;54.324;10.126;2023-03-01T12:27:39;5.10;99.90
18131;DHT22;9191;54.324;10.126;2023-03-01T12:30:17;5.40;99.90
18131;DHT22;9191;54.324;10.126;2023-03-01T12:32:50;5.50;99.90
18131;DHT22;9191;54.324;10.126;2023-03-01T12:35:25;5.50;99.90
18131;DHT22;9191;54.324;10.126;2023-03-01T12:37:56;5.40;99.90
18131;DHT22;9191;54.324;10.126;2023-03-01T12:40:30;5.40;99.90
18131;DHT22;9191;54.324;10.126;2023-03-01T12:43:04;5.60;99.90
18131;DHT22;9191;54.324;10.126;2023-03-01T12:45:46;5.30;99.90
18131;DHT22;9191;54.324;10.126;2023-03-01T12:48:21;5.30;99.90
18131;DHT22;9191;54.324;10.126;2023-03-01T12:50:51;5.00;99.90
18131;DHT22;9191;54.324;10.126;2023-03-01T12:53:23;4.80;99.90
18131;DHT22;9191;54.324;10.126;2023-03-01T12:55:50;4.80;99.90
18131;DHT22;9191;54.324;10.126;2023-03-01T12:58:23;4.60;99.90
18131;DHT22;9191;54.324;10.126;2023-03-01T13:00:54;4.80;99.90
18131;DHT22;9191;54.324;10.126;2023-03-01T13:03:28;4.80;99.90
18131;DHT22;9191;54.324;10.126;2023-03-01T13:06:02;4.80;99.90
18131;DHT22;9191;54.324;10.126;2023-03-01T13:08:31;4.80;99.90
18131;DHT22;9191;54.324;10.126;2023-03-01T13:11:02;4.70;99.90
18131;DHT22;9191;54.324;10.126;2023-03-01T13:13:31;4.70;99.90
18131;DHT22;9191;54.324;10.126;2023-03-01T13:15:58;4.90;99.90
18131;DHT22;9191;54.324;10.126;2023-03-01T13:18:45;4.80;99.90
18131;DHT22;9191;54.324;10.126;2023-03-01T13:21:12;4.70;99.90
18131;DHT22;9191;54.324;10.126;2023-03-01T13:23:41;4.80;99.90
18131;DHT22;9191;54.324;10.126;2023-03-01T13:26:14;4.90;99.90
18131;DHT22;9191;54.324;10.126;2023-03-01T13:28:47;4.70;99.90
18131;DHT22;9191;54.324;10.126;2023-03-01T13:33:59;4.50;99.90
18131;DHT22;9191;54.324;10.126;2023-03-01T13:36:45;4.50;99.90
18131;DHT22;9191;54.324;10.126;2023-03-01T13:39:26;4.40;99.90
18131;DHT22;9191;54.324;10.126;2023-03-01T13:41:57;4.50;99.90
18131;DHT22;9191;54.324;10.126;2023-03-01T13:44:33;4.30;99.90
18131;DHT22;9191;54.324;10.126;2023-03-01T13:47:03;4.30;99.90
18131;DHT22;9191;54.324;10.126;2023-03-01T13:49:33;4.30;99.90
18131;DHT22;9191;54.324;10.126;2023-03-01T13:52:02;4.40;99.90
18131;DHT22;9191;54.324;10.126;2023-03-01T13:54:30;4.70;99.90
18131;DHT22;9191;54.324;10.126;2023-03-01T13:56:57;4.70;99.90
18131;DHT22;9191;54.324;10.126;2023-03-01T13:59:24;4.90;99.90
18131;DHT22;9191;54.324;10.126;2023-03-01T14:01:53;4.80;99.90
18131;DHT22;9191;54.324;10.126;2023-03-01T14:04:21;4.60;99.90
18131;DHT22;9191;54.324;10.126;2023-03-01T14:06:48;4.60;99.90
18131;DHT22;9191;54.324;10.126;2023-03-01T14:09:16;4.40;99.90
18131;DHT22;9191;54.324;10.126;2023-03-01T14:12:13;4.50;99.90
18131;DHT22;9191;54.324;10.126;2023-03-01T14:14:51;4.40;99.90
18131;DHT22;9191;54.324;10.126;2023-03-01T14:17:32;4.40;99.90
18131;DHT22;9191;54.324;10.126;2023-03-01T14:20:07;4.20;99.90
18131;DHT22;9191;54.324;10.126;2023-03-01T14:22:34;4.10;99.90
18131;DHT22;9191;54.324;10.126;2023-03-01T14:25:02;4.10;99.90
18131;DHT22;9191;54.324;10.126;2023-03-01T14:27:30;4.00;99.90
18131;DHT22;9191;54.324;10.126;2023-03-01T14:30:00;4.00;99.90
18131;DHT22;9191;54.324;10.126;2023-03-01T14:32:27;4.00;99.90
18131;DHT22;9191;54.324;10.126;2023-03-01T14:34:55;3.70;99.90
18131;DHT22;9191;54.324;10.126;2023-03-01T14:37:24;3.60;99.90
18131;DHT22;9191;54.324;10.126;2023-03-01T14:39:51;3.70;99.90
18131;DHT22;9191;54.324;10.126;2023-03-01T14:42:18;3.60;99.90
18131;DHT22;9191;54.324;10.126;2023-03-01T14:44:46;3.70;99.90
18131;DHT22;9191;54.324;10.126;2023-03-01T14:47:14;3.60;99.90
18131;DHT22;9191;54.324;10.126;2023-03-01T14:49:42;3.70;99.90
18131;DHT22;9191;54.324;10.126;2023-03-01T14:52:18;3.80;99.90
18131;DHT22;9191;54.324;10.126;2023-03-01T14:54:46;3.80;99.90
18131;DHT22;9191;54.324;10.126;2023-03-01T14:57:13;3.80;99.90
18131;DHT22;9191;54.324;10.126;2023-03-01T14:59:41;3.80;99.90
18131;DHT22;9191;54.324;10.126;2023-03-01T15:02:08;3.80;99.90
18131;DHT22;9191;54.324;10.126;2023-03-01T15:04:38;3.70;99.90
18131;DHT22;9191;54.324;10.126;2023-03-01T15:07:04;3.60;99.90
18131;DHT22;9191;54.324;10.126;2023-03-01T15:09:33;3.60;99.90
18131;DHT22;9191;54.324;10.126;2023-03-01T15:12:14;3.70;99.90
18131;DHT22;9191;54.324;10.126;2023-03-01T15:14:48;3.60;99.90
18131;DHT22;9191;54.324;10.126;2023-03-01T15:17:30;4.00;99.90
18131;DHT22;9191;54.324;10.126;2023-03-01T15:19:57;5.90;99.90
18131;DHT22;9191;54.324;10.126;2023-03-01T15:22:26;6.60;99.90
18131;DHT22;9191;54.324;10.126;2023-03-01T15:24:54;5.50;99.90
18131;DHT22;9191;54.324;10.126;2023-03-01T15:27:22;5.00;99.90
18131;DHT22;9191;54.324;10.126;2023-03-01T15:29:49;4.50;99.90
18131;DHT22;9191;54.324;10.126;2023-03-01T15:32:27;4.50;99.90
18131;DHT22;9191;54.324;10.126;2023-03-01T15:34:54;4.50;99.90
18131;DHT22;9191;54.324;10.126;2023-03-01T15:37:40;4.30;99.90
18131;DHT22;9191;54.324;10.126;2023-03-01T15:40:22;4.20;99.90
18131;DHT22;9191;54.324;10.126;2023-03-01T15:42:50;4.00;99.90
18131;DHT22;9191;54.324;10.126;2023-03-01T15:45:23;3.90;99.90
18131;DHT22;9191;54.324;10.126;2023-03-01T15:47:52;4.00;99.90
18131;DHT22;9191;54.324;10.126;2023-03-01T15:50:22;3.80;99.90
18131;DHT22;9191;54.324;10.126;2023-03-01T15:52:49;3.80;99.90
18131;DHT22;9191;54.324;10.126;2023-03-01T15:55:18;3.70;99.90
18131;DHT22;9191;54.324;10.126;2023-03-01T15:57:46;3.80;99.90
18131;DHT22;9191;54.324;10.126;2023-03-01T16:00:13;3.80;99.90
18131;DHT22;9191;54.324;10.126;2023-03-01T16:02:41;3.60;99.90
18131;DHT22;9191;54.324;10.126;2023-03-01T16:05:10;3.70;99.90
18131;DHT22;9191;54.324;10.126;2023-03-01T16:07:42;3.70;99.90
18131;DHT22;9191;54.324;10.126;2023-03-01T16:10:09;3.70;99.90